createdAt,value
2018-03-28T00:01:45.267Z,14.00
2018-03-28T00:04:13.566Z,14.00
2018-03-28T00:06:41.987Z,14.00
2018-03-28T00:09:10.342Z,14.00
2018-03-28T00:11:38.996Z,14.00
2018-03-28T00:14:07.327Z,14.00
2018-03-28T00:16:35.727Z,13.90
2018-03-28T00:19:04.342Z,13.90
2018-03-28T00:21:33.093Z,13.90
2018-03-28T00:24:01.377Z,13.90
2018-03-28T00:26:29.666Z,13.90
2018-03-28T00:28:58.056Z,13.90
2018-03-28T00:31:26.374Z,13.90
2018-03-28T00:33:54.706Z,13.90
2018-03-28T00:36:23.001Z,13.80
2018-03-28T00:38:51.671Z,13.80
2018-03-28T00:41:19.999Z,13.80
2018-03-28T00:43:48.276Z,13.80
2018-03-28T00:46:16.601Z,13.80
2018-03-28T00:48:44.903Z,13.80
2018-03-28T00:51:25.536Z,13.80
2018-03-28T00:53:54.281Z,13.80
2018-03-28T00:56:22.569Z,13.80
2018-03-28T00:58:50.888Z,13.80
2018-03-28T01:01:19.205Z,13.70
2018-03-28T01:03:47.743Z,13.70
2018-03-28T01:06:16.027Z,13.70
2018-03-28T01:08:44.601Z,13.70
2018-03-28T01:11:13.183Z,13.70
2018-03-28T01:13:41.501Z,13.70
2018-03-28T01:16:09.804Z,13.70
2018-03-28T01:18:38.085Z,13.70
2018-03-28T01:21:07.126Z,13.70
2018-03-28T01:23:35.409Z,13.70
2018-03-28T01:26:04.375Z,13.70
2018-03-28T01:28:32.680Z,13.70
2018-03-28T01:31:01.367Z,13.70
2018-03-28T01:33:30.048Z,13.70
2018-03-28T01:35:58.383Z,13.70
2018-03-28T01:38:26.669Z,13.70
2018-03-28T01:40:54.968Z,13.70
2018-03-28T01:43:23.695Z,13.70
2018-03-28T01:45:52.223Z,13.70
2018-03-28T01:48:20.503Z,13.70
2018-03-28T01:50:48.814Z,13.70
2018-03-28T01:53:17.120Z,13.70
2018-03-28T01:55:45.392Z,13.70
2018-03-28T01:58:13.705Z,13.70
2018-03-28T02:00:41.992Z,13.70
2018-03-28T02:03:10.273Z,13.70
2018-03-28T02:05:39.625Z,13.60
2018-03-28T02:08:07.633Z,13.60
2018-03-28T02:10:35.930Z,13.60
2018-03-28T02:13:04.278Z,13.60
2018-03-28T02:15:32.588Z,13.60
2018-03-28T02:18:01.272Z,13.60
2018-03-28T02:20:29.970Z,13.60
2018-03-28T02:22:58.244Z,13.60
2018-03-28T02:25:26.793Z,13.60
2018-03-28T02:27:55.535Z,13.60
2018-03-28T02:30:23.816Z,13.60
2018-03-28T02:32:52.130Z,13.60
2018-03-28T02:35:20.716Z,13.60
2018-03-28T02:37:49.004Z,13.60
2018-03-28T02:40:17.454Z,13.60
2018-03-28T02:42:45.793Z,13.60
2018-03-28T02:45:14.157Z,13.60
2018-03-28T02:47:42.867Z,13.60
2018-03-28T02:50:11.156Z,13.60
2018-03-28T02:52:39.432Z,13.60
2018-03-28T02:55:07.735Z,13.60
2018-03-28T02:57:36.015Z,13.60
2018-03-28T03:00:04.310Z,13.60
2018-03-28T03:02:33.026Z,13.60
2018-03-28T03:05:01.333Z,13.60
2018-03-28T03:07:29.607Z,13.60
2018-03-28T03:09:58.222Z,13.60
2018-03-28T03:12:26.532Z,13.60
2018-03-28T03:14:54.816Z,13.60
2018-03-28T03:17:23.130Z,13.60
2018-03-28T03:19:51.846Z,13.60
2018-03-28T03:22:20.125Z,13.60
2018-03-28T03:24:48.469Z,13.60
2018-03-28T03:27:16.748Z,13.60
2018-03-28T03:29:45.037Z,13.50
2018-03-28T03:32:13.375Z,13.60
2018-03-28T03:34:41.655Z,13.60
2018-03-28T03:37:10.179Z,13.60
2018-03-28T03:39:39.168Z,13.60
2018-03-28T03:42:07.465Z,13.60
2018-03-28T03:44:36.171Z,13.60
2018-03-28T03:47:05.249Z,13.60
2018-03-28T03:49:33.809Z,13.60
2018-03-28T03:52:02.098Z,13.60
2018-03-28T03:54:31.078Z,13.60
2018-03-28T03:56:59.776Z,13.60
2018-03-28T03:59:28.455Z,13.60
2018-03-28T04:01:56.789Z,13.60
2018-03-28T04:04:25.416Z,13.60
2018-03-28T04:06:53.702Z,13.60
2018-03-28T04:09:22.411Z,13.60
2018-03-28T04:11:50.696Z,13.60
2018-03-28T04:14:19.336Z,13.60
2018-03-28T04:16:47.920Z,13.60
2018-03-28T04:19:16.204Z,13.60
2018-03-28T04:21:44.896Z,13.60
2018-03-28T04:24:13.589Z,13.60
2018-03-28T04:26:42.262Z,13.60
2018-03-28T04:29:10.582Z,13.60
2018-03-28T04:31:38.887Z,13.60
2018-03-28T04:34:07.171Z,13.60
2018-03-28T04:36:35.482Z,13.60
2018-03-28T04:39:03.788Z,13.60
2018-03-28T04:41:32.419Z,13.60
2018-03-28T04:44:00.726Z,13.50
2018-03-28T04:46:29.380Z,13.50
2018-03-28T04:48:57.776Z,13.50
2018-03-28T04:51:26.456Z,13.50
2018-03-28T04:53:54.739Z,13.50
2018-03-28T04:56:23.045Z,13.50
2018-03-28T04:58:51.328Z,13.50
2018-03-28T05:01:19.659Z,13.50
2018-03-28T05:03:49.199Z,13.50
2018-03-28T05:06:17.481Z,13.50
2018-03-28T05:08:45.802Z,13.50
2018-03-28T05:11:14.396Z,13.50
2018-03-28T05:13:42.718Z,13.50
2018-03-28T05:16:11.059Z,13.50
2018-03-28T05:18:39.384Z,13.50
2018-03-28T05:21:07.667Z,13.50
2018-03-28T05:23:36.051Z,13.50
2018-03-28T05:26:04.391Z,13.50
2018-03-28T05:28:32.690Z,13.50
2018-03-28T05:31:01.019Z,13.50
2018-03-28T05:33:29.307Z,13.50
2018-03-28T05:35:57.984Z,13.50
2018-03-28T05:38:26.750Z,13.50
2018-03-28T05:40:55.036Z,13.50
2018-03-28T05:43:23.324Z,13.50
2018-03-28T05:45:51.908Z,13.50
2018-03-28T05:48:20.216Z,13.50
2018-03-28T05:50:48.540Z,13.50
2018-03-28T05:53:16.842Z,13.50
2018-03-28T05:55:45.538Z,13.30
2018-03-28T05:58:13.883Z,13.30
2018-03-28T06:00:42.285Z,13.30
2018-03-28T06:03:11.252Z,13.30
2018-03-28T06:05:39.567Z,13.30
2018-03-28T06:08:07.878Z,13.30
2018-03-28T06:10:36.502Z,13.30
2018-03-28T06:13:05.217Z,13.30
2018-03-28T06:15:33.516Z,13.30
2018-03-28T06:18:01.827Z,13.30
2018-03-28T06:20:30.223Z,13.40
2018-03-28T06:22:58.931Z,13.40
2018-03-28T06:25:27.572Z,13.40
2018-03-28T06:27:57.406Z,13.40
2018-03-28T06:30:31.581Z,13.40
2018-03-28T06:33:05.444Z,13.40
2018-03-28T06:35:35.241Z,13.40
2018-03-28T06:38:05.859Z,13.30
2018-03-28T06:40:36.296Z,13.20
2018-03-28T06:43:05.641Z,13.20
2018-03-28T06:45:35.313Z,13.20
2018-03-28T06:48:03.788Z,13.20
2018-03-28T06:50:42.530Z,13.30
2018-03-28T06:53:11.342Z,13.30
2018-03-28T06:55:39.665Z,13.30
2018-03-28T06:58:08.016Z,13.30
2018-03-28T07:00:36.725Z,13.30
2018-03-28T07:03:05.041Z,13.30
2018-03-28T07:05:33.350Z,13.40
2018-03-28T07:08:01.700Z,13.40
2018-03-28T07:10:30.417Z,13.30
2018-03-28T07:12:58.735Z,13.40
2018-03-28T07:15:27.107Z,13.30
2018-03-28T07:17:55.429Z,13.40
2018-03-28T07:20:23.851Z,13.40
2018-03-28T07:22:52.145Z,13.40
2018-03-28T07:25:20.743Z,13.40
2018-03-28T07:27:50.325Z,13.40
2018-03-28T07:30:18.789Z,13.40
2018-03-28T07:32:47.162Z,13.50
2018-03-28T07:35:15.488Z,13.50
2018-03-28T07:37:44.180Z,13.40
2018-03-28T07:40:13.012Z,13.40
2018-03-28T07:42:41.761Z,13.40
2018-03-28T07:45:10.072Z,13.40
2018-03-28T07:47:38.391Z,13.40
2018-03-28T07:50:07.260Z,13.40
2018-03-28T07:52:35.885Z,13.40
2018-03-28T07:55:04.735Z,13.40
2018-03-28T07:57:33.699Z,13.50
2018-03-28T08:00:02.331Z,13.50
2018-03-28T08:02:30.678Z,13.50
2018-03-28T08:04:59.218Z,13.50
2018-03-28T08:07:28.632Z,13.40
2018-03-28T08:09:56.998Z,13.30
2018-03-28T08:12:25.583Z,13.30
2018-03-28T08:14:53.931Z,13.30
2018-03-28T08:17:22.674Z,13.30
2018-03-28T08:19:50.995Z,13.30
2018-03-28T08:22:19.340Z,13.30
2018-03-28T08:24:47.651Z,13.40
2018-03-28T08:27:16.184Z,13.40
2018-03-28T08:29:45.458Z,13.40
2018-03-28T08:32:22.351Z,13.40
2018-03-28T08:34:52.529Z,13.40
2018-03-28T08:37:20.918Z,13.40
2018-03-28T08:39:49.632Z,13.40
2018-03-28T08:42:18.052Z,13.40
2018-03-28T08:44:46.776Z,13.40
2018-03-28T08:47:15.113Z,13.40
2018-03-28T08:49:43.425Z,13.40
2018-03-28T08:52:12.191Z,13.40
2018-03-28T08:54:40.564Z,13.40
2018-03-28T08:57:08.943Z,13.40
2018-03-28T08:59:37.233Z,13.40
2018-03-28T09:02:05.577Z,13.50
2018-03-28T09:04:33.972Z,13.50
2018-03-28T09:07:02.549Z,13.50
2018-03-28T09:09:31.675Z,13.50
2018-03-28T09:12:00.053Z,13.50
2018-03-28T09:14:28.792Z,13.50
2018-03-28T09:16:57.123Z,13.50
2018-03-28T09:19:25.471Z,13.50
2018-03-28T09:21:54.191Z,13.50
2018-03-28T09:24:22.903Z,13.50
2018-03-28T09:26:51.199Z,13.50
2018-03-28T09:29:19.505Z,13.50
2018-03-28T09:31:48.098Z,13.50
2018-03-28T09:34:16.710Z,13.50
2018-03-28T09:36:45.007Z,13.50
2018-03-28T09:39:13.354Z,13.50
2018-03-28T09:41:41.744Z,13.50
2018-03-28T09:44:10.039Z,13.50
2018-03-28T09:46:38.361Z,13.60
2018-03-28T09:49:06.668Z,13.60
2018-03-28T09:51:35.346Z,13.60
2018-03-28T09:54:03.745Z,13.60
2018-03-28T09:56:32.031Z,13.60
2018-03-28T09:59:00.366Z,13.60
2018-03-28T10:01:29.929Z,13.60
2018-03-28T10:04:03.824Z,13.60
2018-03-28T10:06:32.172Z,13.60
2018-03-28T10:09:00.889Z,13.60
2018-03-28T10:11:29.419Z,13.60
2018-03-28T10:13:57.753Z,13.60
2018-03-28T10:16:26.394Z,13.60
2018-03-28T10:18:55.084Z,13.60
2018-03-28T10:21:23.456Z,13.60
2018-03-28T10:23:52.152Z,13.70
2018-03-28T10:26:20.903Z,13.70
2018-03-28T10:28:49.375Z,13.70
2018-03-28T10:31:18.581Z,13.70
2018-03-28T10:33:46.900Z,13.70
2018-03-28T10:36:15.621Z,13.70
2018-03-28T10:38:51.813Z,13.70
2018-03-28T10:41:21.226Z,13.70
2018-03-28T10:43:50.180Z,13.80
2018-03-28T10:46:18.733Z,13.70
2018-03-28T10:48:47.073Z,13.80
2018-03-28T10:51:15.383Z,13.80
2018-03-28T10:53:43.681Z,13.80
2018-03-28T10:56:12.005Z,13.80
2018-03-28T10:58:40.301Z,13.80
2018-03-28T11:01:09.098Z,13.90
2018-03-28T11:03:38.018Z,13.90
2018-03-28T11:06:07.092Z,13.90
2018-03-28T11:08:38.488Z,13.90
2018-03-28T11:11:07.691Z,14.00
2018-03-28T11:13:36.011Z,14.00
2018-03-28T11:16:06.218Z,14.00
2018-03-28T11:18:34.807Z,14.00
2018-03-28T11:21:03.506Z,14.00
2018-03-28T11:23:34.147Z,14.00
2018-03-28T11:26:02.538Z,14.00
2018-03-28T11:28:30.945Z,13.90
2018-03-28T11:30:59.492Z,13.90
2018-03-28T11:33:27.825Z,13.90
2018-03-28T11:35:56.661Z,13.90
2018-03-28T11:38:25.023Z,13.90
2018-03-28T11:40:53.353Z,13.90
2018-03-28T11:43:21.861Z,13.90
2018-03-28T11:45:51.453Z,13.90
2018-03-28T11:48:19.994Z,13.90
2018-03-28T11:50:48.376Z,13.90
2018-03-28T11:53:17.309Z,13.80
2018-03-28T11:55:45.620Z,13.80
2018-03-28T11:58:13.917Z,13.80
2018-03-28T12:00:42.264Z,13.80
2018-03-28T12:03:10.568Z,13.80
2018-03-28T12:05:38.953Z,13.80
2018-03-28T12:08:07.586Z,13.80
2018-03-28T12:10:36.300Z,13.80
2018-03-28T12:13:04.718Z,13.80
2018-03-28T12:15:33.224Z,13.80
2018-03-28T12:18:01.941Z,13.80
2018-03-28T12:20:30.324Z,13.80
2018-03-28T12:22:58.675Z,13.90
2018-03-28T12:25:26.983Z,13.90
2018-03-28T12:27:55.331Z,13.90
2018-03-28T12:30:23.670Z,13.90
2018-03-28T12:32:52.192Z,13.90
2018-03-28T12:35:20.512Z,14.00
2018-03-28T12:37:48.957Z,14.00
2018-03-28T12:40:17.988Z,14.00
2018-03-28T12:42:46.268Z,14.00
2018-03-28T12:45:14.600Z,14.00
2018-03-28T12:47:43.550Z,14.00
2018-03-28T12:50:11.894Z,14.00
2018-03-28T12:52:40.542Z,14.00
2018-03-28T12:55:08.847Z,14.00
2018-03-28T12:57:37.240Z,14.00
2018-03-28T13:00:05.573Z,13.90
2018-03-28T13:02:33.976Z,13.90
2018-03-28T13:05:02.264Z,13.90
2018-03-28T13:07:31.088Z,13.90
2018-03-28T13:09:59.404Z,13.90
2018-03-28T13:12:28.767Z,13.90
2018-03-28T13:14:57.097Z,13.90
2018-03-28T13:17:25.647Z,13.90
2018-03-28T13:19:54.824Z,13.90
2018-03-28T13:22:23.956Z,13.90
2018-03-28T13:24:52.337Z,13.90
2018-03-28T13:27:20.694Z,13.90
2018-03-28T13:29:49.008Z,13.90
2018-03-28T13:32:18.082Z,13.80
2018-03-28T13:34:46.438Z,13.80
2018-03-28T13:37:14.817Z,13.80
2018-03-28T13:39:43.224Z,13.80
2018-03-28T13:42:11.983Z,13.80
2018-03-28T13:44:40.329Z,13.80
2018-03-28T13:47:08.665Z,13.80
2018-03-28T13:49:37.387Z,13.80
2018-03-28T13:52:05.685Z,13.80
2018-03-28T13:54:34.065Z,13.90
2018-03-28T13:57:03.130Z,13.90
2018-03-28T13:59:31.451Z,13.90
2018-03-28T14:01:59.751Z,13.90
2018-03-28T14:04:28.065Z,13.90
2018-03-28T14:06:56.376Z,13.90
2018-03-28T14:09:24.668Z,13.90
2018-03-28T14:11:53.188Z,13.90
2018-03-28T14:14:21.488Z,13.90
2018-03-28T14:16:49.783Z,13.90
2018-03-28T14:19:18.090Z,13.90
2018-03-28T14:21:46.832Z,13.80
2018-03-28T14:24:15.157Z,13.80
2018-03-28T14:26:43.455Z,13.80
2018-03-28T14:29:12.171Z,13.80
2018-03-28T14:31:40.662Z,13.80
2018-03-28T14:34:08.983Z,13.80
2018-03-28T14:36:37.278Z,13.70
2018-03-28T14:39:05.565Z,13.70
2018-03-28T14:41:33.935Z,13.70
2018-03-28T14:44:03.206Z,13.70
2018-03-28T14:46:31.508Z,13.60
2018-03-28T14:48:59.807Z,13.60
2018-03-28T14:51:28.100Z,13.60
2018-03-28T14:53:56.393Z,13.50
2018-03-28T14:56:24.880Z,13.50
2018-03-28T14:58:53.181Z,13.50
2018-03-28T15:01:21.896Z,13.50
2018-03-28T15:03:50.269Z,13.50
2018-03-28T15:06:18.572Z,13.50
2018-03-28T15:08:46.909Z,13.50
2018-03-28T15:11:15.607Z,13.50
2018-03-28T15:13:43.889Z,13.50
2018-03-28T15:16:12.180Z,13.40
2018-03-28T15:18:40.519Z,13.40
2018-03-28T15:21:09.202Z,13.40
2018-03-28T15:23:37.774Z,13.40
2018-03-28T15:26:06.520Z,13.40
2018-03-28T15:28:34.836Z,13.40
2018-03-28T15:31:03.542Z,13.40
2018-03-28T15:33:31.982Z,13.40
2018-03-28T15:36:00.273Z,13.40
2018-03-28T15:38:28.567Z,13.40
2018-03-28T15:40:56.864Z,13.40
2018-03-28T15:43:25.169Z,13.40
2018-03-28T15:45:53.570Z,13.30
2018-03-28T15:48:21.833Z,13.30
2018-03-28T15:50:50.351Z,13.30
2018-03-28T15:53:18.907Z,13.30
2018-03-28T15:55:47.613Z,13.30
2018-03-28T15:58:16.746Z,13.30
2018-03-28T16:00:45.049Z,13.30
2018-03-28T16:03:13.372Z,13.30
2018-03-28T16:05:42.095Z,13.20
2018-03-28T16:08:10.401Z,13.20
2018-03-28T16:10:38.690Z,13.20
2018-03-28T16:13:07.023Z,13.10
2018-03-28T16:15:35.321Z,13.10
2018-03-28T16:18:03.968Z,13.10
2018-03-28T16:20:32.291Z,13.10
2018-03-28T16:23:00.588Z,13.10
2018-03-28T16:25:28.886Z,13.10
2018-03-28T16:27:57.324Z,13.10
2018-03-28T16:30:25.932Z,13.10
2018-03-28T16:32:54.308Z,13.00
2018-03-28T16:35:23.039Z,13.00
2018-03-28T16:37:51.325Z,13.00
2018-03-28T16:40:19.637Z,13.00
2018-03-28T16:42:48.094Z,13.00
2018-03-28T16:45:16.462Z,13.00
2018-03-28T16:47:44.914Z,13.00
2018-03-28T16:50:27.661Z,13.00
2018-03-28T16:52:56.199Z,13.00
2018-03-28T16:58:21.633Z,12.90
2018-03-28T17:00:49.972Z,12.90
2018-03-28T17:03:18.331Z,12.90
2018-03-28T17:05:46.764Z,12.90
2018-03-28T17:08:15.461Z,12.90
2018-03-28T17:10:43.802Z,12.90
2018-03-28T17:13:12.151Z,12.90
2018-03-28T17:15:40.437Z,12.80
2018-03-28T17:18:08.748Z,12.80
2018-03-28T17:20:37.065Z,12.80
2018-03-28T17:23:05.368Z,12.80
2018-03-28T17:25:33.694Z,12.80
2018-03-28T17:28:02.390Z,12.80
2018-03-28T17:30:30.730Z,12.80
2018-03-28T17:32:59.467Z,12.70
2018-03-28T17:35:28.110Z,12.70
2018-03-28T17:37:56.640Z,12.70
2018-03-28T17:40:25.337Z,12.70
2018-03-28T17:42:53.741Z,12.70
2018-03-28T17:45:22.076Z,12.70
2018-03-28T17:47:50.475Z,12.70
2018-03-28T17:50:18.837Z,12.70
2018-03-28T17:52:47.715Z,12.70
2018-03-28T17:55:16.034Z,12.70
2018-03-28T17:57:44.327Z,12.70
2018-03-28T18:00:13.049Z,12.60
2018-03-28T18:02:41.745Z,12.60
2018-03-28T18:05:10.063Z,12.60
2018-03-28T18:07:38.411Z,12.60
2018-03-28T18:10:06.712Z,12.60
2018-03-28T18:12:35.030Z,12.60
2018-03-28T18:15:03.771Z,12.60
2018-03-28T18:17:32.075Z,12.60
2018-03-28T18:20:00.815Z,12.60
2018-03-28T18:22:29.153Z,12.60
2018-03-28T18:24:58.270Z,12.60
2018-03-28T18:27:26.606Z,12.60
2018-03-28T18:29:55.389Z,12.60
2018-03-28T18:32:23.711Z,12.60
2018-03-28T18:34:52.052Z,12.60
2018-03-28T18:37:20.353Z,12.60
2018-03-28T18:39:49.107Z,12.60
2018-03-28T18:42:17.668Z,12.60
2018-03-28T18:44:45.992Z,12.60
2018-03-28T18:47:14.730Z,12.60
2018-03-28T18:49:43.028Z,12.60
2018-03-28T18:52:11.317Z,12.60
2018-03-28T18:54:39.634Z,12.60
2018-03-28T18:57:08.586Z,12.60
2018-03-28T18:59:36.878Z,12.60
2018-03-28T19:02:05.182Z,12.60
2018-03-28T19:04:33.485Z,12.50
2018-03-28T19:07:01.775Z,12.50
2018-03-28T19:09:30.113Z,12.50
2018-03-28T19:11:58.427Z,12.50
2018-03-28T19:14:27.158Z,12.50
2018-03-28T19:16:55.904Z,12.50
2018-03-28T19:19:24.217Z,12.50
2018-03-28T19:21:52.937Z,12.50
2018-03-28T19:24:21.966Z,12.50
2018-03-28T19:26:50.825Z,12.50
2018-03-28T19:29:19.249Z,12.50
2018-03-28T19:31:47.834Z,12.50
2018-03-28T19:34:16.295Z,12.50
2018-03-28T19:36:45.435Z,12.50
2018-03-28T19:39:14.382Z,12.50
2018-03-28T19:41:42.803Z,12.50
2018-03-28T19:44:11.552Z,12.50
2018-03-28T19:46:39.860Z,12.50
2018-03-28T19:49:08.725Z,12.50
2018-03-28T19:51:37.179Z,12.50
2018-03-28T19:54:05.530Z,12.50
2018-03-28T19:56:33.891Z,12.50
2018-03-28T19:59:03.061Z,12.50
2018-03-28T20:01:31.348Z,12.50
2018-03-28T20:03:59.772Z,12.50
2018-03-28T20:06:28.132Z,12.50
2018-03-28T20:08:56.442Z,12.50
2018-03-28T20:11:25.624Z,12.60
2018-03-28T20:13:53.959Z,12.70
2018-03-28T20:16:23.155Z,12.70
2018-03-28T20:18:51.459Z,12.70
2018-03-28T20:21:19.813Z,12.80
2018-03-28T20:23:53.898Z,12.80
2018-03-28T20:26:22.591Z,12.90
2018-03-28T20:28:51.536Z,12.90
2018-03-28T20:31:19.834Z,12.90
2018-03-28T20:33:48.160Z,12.90
2018-03-28T20:36:16.740Z,13.00
2018-03-28T20:38:45.031Z,13.00
2018-03-28T20:41:13.765Z,13.00
2018-03-28T20:43:42.087Z,13.00
2018-03-28T20:46:10.780Z,13.00
2018-03-28T20:48:39.121Z,13.00
2018-03-28T20:51:07.503Z,13.00
2018-03-28T20:53:35.808Z,13.00
2018-03-28T20:56:04.122Z,13.10
2018-03-28T20:58:32.429Z,13.40
2018-03-28T21:01:00.742Z,13.90
2018-03-28T21:03:29.107Z,14.40
2018-03-28T21:05:57.406Z,14.90
2018-03-28T21:08:25.691Z,15.40
2018-03-28T21:10:54.002Z,15.80
2018-03-28T21:13:22.299Z,16.10
2018-03-28T21:15:50.575Z,16.40
2018-03-28T21:18:18.887Z,16.70
2018-03-28T21:20:47.592Z,17.00
2018-03-28T21:23:15.892Z,17.00
2018-03-28T21:25:44.192Z,16.90
2018-03-28T21:28:12.721Z,16.80
2018-03-28T21:30:41.055Z,16.60
2018-03-28T21:33:09.348Z,16.40
2018-03-28T21:35:37.649Z,16.20
2018-03-28T21:38:05.972Z,16.00
2018-03-28T21:40:34.258Z,15.80
2018-03-28T21:43:02.605Z,15.60
2018-03-28T21:45:31.148Z,15.40
2018-03-28T21:47:59.456Z,15.30
2018-03-28T21:50:27.778Z,15.20
2018-03-28T21:52:56.096Z,15.00
2018-03-28T21:55:24.401Z,14.90
2018-03-28T21:57:52.795Z,14.80
2018-03-28T22:00:21.117Z,14.80
2018-03-28T22:02:50.910Z,14.60
2018-03-28T22:05:20.090Z,14.60
2018-03-28T22:07:48.442Z,14.60
2018-03-28T22:10:16.726Z,14.50
2018-03-28T22:12:45.386Z,14.50
2018-03-28T22:15:13.722Z,14.40
2018-03-28T22:17:42.024Z,14.40
2018-03-28T22:20:10.332Z,14.30
2018-03-28T22:22:38.639Z,14.30
2018-03-28T22:25:07.011Z,14.30
2018-03-28T22:27:35.318Z,14.20
2018-03-28T22:30:03.663Z,14.20
2018-03-28T22:32:31.941Z,14.20
2018-03-28T22:35:00.540Z,14.10
2018-03-28T22:37:28.827Z,14.10
2018-03-28T22:39:57.124Z,14.10
2018-03-28T22:42:25.775Z,14.10
2018-03-28T22:44:54.067Z,14.00
2018-03-28T22:47:22.769Z,14.00
2018-03-28T22:49:51.176Z,14.00
2018-03-28T22:52:19.804Z,14.00
2018-03-28T22:54:48.505Z,14.00
2018-03-28T22:57:17.323Z,13.90
2018-03-28T22:59:45.648Z,13.90
2018-03-28T23:02:13.935Z,13.90
2018-03-28T23:04:42.231Z,13.90
2018-03-28T23:07:10.923Z,13.90
2018-03-28T23:09:39.796Z,13.90
2018-03-28T23:12:08.262Z,13.90
2018-03-28T23:14:37.261Z,13.80
2018-03-28T23:17:05.729Z,13.90
2018-03-28T23:19:34.841Z,13.80
2018-03-28T23:22:03.433Z,13.80
2018-03-28T23:24:31.806Z,13.80
2018-03-28T23:27:00.527Z,13.80
2018-03-28T23:29:28.872Z,13.80
2018-03-28T23:31:57.587Z,13.80
2018-03-28T23:34:25.927Z,13.80
2018-03-28T23:36:54.221Z,13.80
2018-03-28T23:39:22.544Z,13.80
2018-03-28T23:41:50.843Z,13.80
2018-03-28T23:44:19.128Z,13.80
2018-03-28T23:46:47.409Z,13.80
2018-03-28T23:49:16.146Z,13.80
2018-03-28T23:51:44.677Z,13.80
2018-03-28T23:54:12.969Z,13.80
2018-03-28T23:56:41.675Z,13.70
2018-03-28T23:59:09.979Z,13.80
